Time,TemperatureF,DewpointF,PressureIn,WindDirection,WindDirectionDegrees,WindSpeedMPH,WindSpeedGustMPH,Humidity,HourlyPrecipIn,Conditions,Clouds,dailyrainin,SoftwareType,DateUTC
2015-09-04 00:08:00,77.1,72.6,29.86,SSE,147,0.0,0.0,86,0.00,,---,0.00,VWS V14.01,2015-09-04 05:08:00,
2015-09-04 00:13:00,77.0,72.5,29.86,SSE,147,0.0,0.0,86,0.00,,---,0.00,VWS V14.01,2015-09-04 05:13:00,
2015-09-04 00:18:00,76.9,72.7,29.86,SSE,147,0.0,0.0,87,0.00,,---,0.00,VWS V14.01,2015-09-04 05:18:00,
2015-09-04 00:23:00,76.8,72.6,29.86,SSE,147,0.0,0.0,87,0.00,,---,0.00,VWS V14.01,2015-09-04 05:23:00,
2015-09-04 00:28:00,76.6,72.4,29.86,SSE,147,0.0,0.0,87,0.00,,---,0.00,VWS V14.01,2015-09-04 05:28:00,
2015-09-04 00:33:00,76.5,72.7,29.87,SSE,147,0.0,0.0,88,0.00,,---,0.00,VWS V14.01,2015-09-04 05:33:00,
2015-09-04 00:38:00,76.5,72.7,29.86,SSE,147,2.0,2.0,88,0.00,,---,0.00,VWS V14.01,2015-09-04 05:38:00,
2015-09-04 00:48:00,76.4,72.6,29.87,SSE,147,0.0,0.0,88,0.00,,---,0.00,VWS V14.01,2015-09-04 05:48:00,
2015-09-04 00:53:00,76.3,72.5,29.87,SSE,147,0.0,0.0,88,0.00,,---,0.00,VWS V14.01,2015-09-04 05:53:00,
2015-09-04 00:58:00,76.3,72.8,29.87,SSE,147,2.0,6.0,89,0.00,,---,0.00,VWS V14.01,2015-09-04 05:58:00,
2015-09-04 01:03:00,76.4,72.6,29.87,SSE,147,5.0,5.0,88,0.00,,---,0.00,VWS V14.01,2015-09-04 06:03:00,
2015-09-04 01:08:00,76.3,72.5,29.87,SSE,147,1.0,5.0,88,0.00,,---,0.00,VWS V14.01,2015-09-04 06:08:00,
2015-09-04 01:18:00,76.2,72.7,29.87,SSE,147,4.0,6.0,89,0.00,,---,0.00,VWS V14.01,2015-09-04 06:18:00,
2015-09-04 01:23:00,76.3,72.8,29.87,SSE,147,4.0,6.0,89,0.00,,---,0.00,VWS V14.01,2015-09-04 06:23:00,
2015-09-04 01:28:00,76.3,72.8,29.87,SSE,147,4.0,5.0,89,0.00,,---,0.00,VWS V14.01,2015-09-04 06:28:00,
2015-09-04 01:33:00,76.3,73.2,29.87,SSE,147,4.0,6.0,90,0.00,,---,0.00,VWS V14.01,2015-09-04 06:33:00,
2015-09-04 01:43:00,76.3,73.2,29.87,SSE,147,2.0,7.0,90,0.00,,---,0.00,VWS V14.01,2015-09-04 06:43:00,
2015-09-04 01:53:00,76.2,73.1,29.87,SSE,147,1.0,5.0,90,0.00,,---,0.00,VWS V14.01,2015-09-04 06:53:00,
2015-09-04 01:58:00,76.2,73.1,29.87,SSE,147,0.0,5.0,90,0.00,,---,0.00,VWS V14.01,2015-09-04 06:58:00,
2015-09-04 02:03:00,76.1,73.0,29.87,SSE,147,0.0,4.0,90,0.00,,---,0.00,VWS V14.01,2015-09-04 07:03:00,
2015-09-04 02:08:00,76.0,72.9,29.87,SSE,147,0.0,1.0,90,0.00,,---,0.00,VWS V14.01,2015-09-04 07:08:00,
2015-09-04 02:13:00,76.0,73.2,29.87,SSE,147,2.0,5.0,91,0.00,,---,0.00,VWS V14.01,2015-09-04 07:13:00,
2015-09-04 02:23:00,75.9,73.1,29.87,SSE,147,4.0,5.0,91,0.00,,---,0.00,VWS V14.01,2015-09-04 07:23:00,
2015-09-04 02:28:00,75.9,73.1,29.87,SSE,147,5.0,6.0,91,0.00,,---,0.00,VWS V14.01,2015-09-04 07:28:00,
2015-09-04 02:33:00,75.9,73.1,29.87,SSE,147,2.0,5.0,91,0.00,,---,0.00,VWS V14.01,2015-09-04 07:33:00,
2015-09-04 02:38:00,75.7,72.9,29.87,SSE,147,4.0,5.0,91,0.00,,---,0.00,VWS V14.01,2015-09-04 07:38:00,
2015-09-04 02:43:00,75.6,73.1,29.87,SSE,147,1.0,6.0,92,0.00,,---,0.00,VWS V14.01,2015-09-04 07:43:00,
2015-09-04 02:48:00,75.6,73.1,29.87,SSE,147,2.0,5.0,92,0.00,,---,0.00,VWS V14.01,2015-09-04 07:48:00,
2015-09-04 02:53:00,75.5,73.0,29.87,SSE,147,0.0,5.0,92,0.00,,---,0.00,VWS V14.01,2015-09-04 07:53:00,
2015-09-04 03:03:00,75.3,72.8,29.87,SSE,147,0.0,2.0,92,0.00,,---,0.00,VWS V14.01,2015-09-04 08:03:00,
2015-09-04 03:08:00,75.2,72.7,29.87,SSE,147,0.0,0.0,92,0.00,,---,0.00,VWS V14.01,2015-09-04 08:08:00,
2015-09-04 03:18:00,75.1,72.9,29.88,SSE,147,0.0,0.0,93,0.00,,---,0.00,VWS V14.01,2015-09-04 08:18:00,
2015-09-04 03:23:00,75.0,72.8,29.88,SSE,147,0.0,0.0,93,0.00,,---,0.00,VWS V14.01,2015-09-04 08:23:00,
2015-09-04 03:28:00,75.0,72.8,29.88,SSE,147,0.0,0.0,93,0.00,,---,0.00,VWS V14.01,2015-09-04 08:28:00,
2015-09-04 03:33:00,74.9,72.7,29.87,SSE,147,0.0,0.0,93,0.00,,---,0.00,VWS V14.01,2015-09-04 08:33:00,
2015-09-04 03:38:00,75.0,72.8,29.87,SSE,147,1.0,4.0,93,0.00,,---,0.00,VWS V14.01,2015-09-04 08:38:00,
2015-09-04 03:43:00,75.1,72.9,29.88,SSE,147,0.0,5.0,93,0.00,,---,0.00,VWS V14.01,2015-09-04 08:43:00,
2015-09-04 03:48:00,75.1,72.9,29.88,SSE,147,0.0,0.0,93,0.00,,---,0.00,VWS V14.01,2015-09-04 08:48:00,
2015-09-04 03:53:00,75.1,72.9,29.88,SSE,147,0.0,0.0,93,0.00,,---,0.00,VWS V14.01,2015-09-04 08:53:00,
2015-09-04 03:58:00,75.2,73.0,29.88,SSE,147,0.0,0.0,93,0.00,,---,0.00,VWS V14.01,2015-09-04 08:58:00,
2015-09-04 04:03:00,75.2,73.0,29.88,SSE,147,0.0,0.0,93,0.00,,---,0.00,VWS V14.01,2015-09-04 09:03:00,
2015-09-04 04:13:00,75.3,73.1,29.88,SSE,147,0.0,0.0,93,0.00,,---,0.00,VWS V14.01,2015-09-04 09:13:00,
2015-09-04 04:23:00,75.5,73.3,29.89,SSE,147,0.0,0.0,93,0.00,,---,0.00,VWS V14.01,2015-09-04 09:23:00,
2015-09-04 04:28:00,75.6,73.8,29.88,SSE,147,1.0,5.0,94,0.00,,---,0.00,VWS V14.01,2015-09-04 09:28:00,
2015-09-04 04:33:00,75.8,73.9,29.88,SSE,147,4.0,6.0,94,0.00,,---,0.00,VWS V14.01,2015-09-04 09:33:00,
2015-09-04 04:38:00,75.9,73.7,29.88,SSE,147,4.0,6.0,93,0.00,,---,0.00,VWS V14.01,2015-09-04 09:38:00,
2015-09-04 04:43:00,76.0,73.8,29.88,SSE,148,5.0,8.0,93,0.00,,---,0.00,VWS V14.01,2015-09-04 09:43:00,
2015-09-04 04:48:00,76.0,73.8,29.89,SSE,148,7.0,7.0,93,0.00,,---,0.00,VWS V14.01,2015-09-04 09:48:00,
2015-09-04 04:53:00,76.1,73.9,29.88,South,174,4.0,8.0,93,0.00,,---,0.00,VWS V14.01,2015-09-04 09:53:00,
2015-09-04 04:58:00,76.1,73.9,29.88,South,174,2.0,5.0,93,0.00,,---,0.00,VWS V14.01,2015-09-04 09:58:00,
2015-09-04 05:03:00,76.1,73.9,29.88,South,174,0.0,5.0,93,0.00,,---,0.00,VWS V14.01,2015-09-04 10:03:00,
2015-09-04 05:08:00,76.0,73.8,29.88,South,174,0.0,0.0,93,0.00,,---,0.00,VWS V14.01,2015-09-04 10:08:00,
2015-09-04 05:13:00,75.9,73.7,29.88,South,174,0.0,0.0,93,0.00,,---,0.00,VWS V14.01,2015-09-04 10:13:00,
2015-09-04 05:23:00,75.6,73.4,29.88,South,174,0.0,0.0,93,0.00,,---,0.00,VWS V14.01,2015-09-04 10:23:00,
2015-09-04 05:28:00,75.6,73.8,29.88,South,174,0.0,0.0,94,0.00,,---,0.00,VWS V14.01,2015-09-04 10:28:00,
2015-09-04 05:33:00,75.7,73.8,29.88,South,174,0.0,0.0,94,0.00,,---,0.00,VWS V14.01,2015-09-04 10:33:00,
2015-09-04 05:38:00,75.7,73.8,29.88,South,174,0.0,0.0,94,0.00,,---,0.00,VWS V14.01,2015-09-04 10:38:00,
2015-09-04 05:43:00,75.7,73.8,29.88,South,174,0.0,0.0,94,0.00,,---,0.00,VWS V14.01,2015-09-04 10:43:00,
2015-09-04 05:48:00,75.7,73.8,29.88,South,174,0.0,0.0,94,0.00,,---,0.00,VWS V14.01,2015-09-04 10:48:00,
2015-09-04 05:53:00,75.7,73.8,29.88,South,174,0.0,0.0,94,0.00,,---,0.00,VWS V14.01,2015-09-04 10:53:00,
2015-09-04 05:58:00,75.6,73.8,29.89,South,174,2.0,5.0,94,0.00,,---,0.00,VWS V14.01,2015-09-04 10:58:00,
2015-09-04 06:03:00,75.5,73.7,29.88,South,174,2.0,5.0,94,0.00,,---,0.00,VWS V14.01,2015-09-04 11:03:00,
2015-09-04 06:08:00,75.4,73.6,29.88,South,174,0.0,5.0,94,0.00,,---,0.00,VWS V14.01,2015-09-04 11:08:00,
2015-09-04 06:18:00,75.1,73.3,29.88,South,174,4.0,5.0,94,0.00,,---,0.00,VWS V14.01,2015-09-04 11:18:00,
2015-09-04 06:23:00,74.9,73.1,29.89,South,174,0.0,5.0,94,0.00,,---,0.00,VWS V14.01,2015-09-04 11:23:00,
2015-09-04 06:28:00,74.9,73.1,29.89,South,174,0.0,0.0,94,0.00,,---,0.00,VWS V14.01,2015-09-04 11:28:00,
2015-09-04 06:33:00,74.9,73.1,29.89,South,174,4.0,5.0,94,0.00,,---,0.00,VWS V14.01,2015-09-04 11:33:00,
2015-09-04 06:38:00,74.9,73.4,29.89,SSE,165,5.0,5.0,95,0.00,,---,0.00,VWS V14.01,2015-09-04 11:38:00,
2015-09-04 06:43:00,74.9,73.4,29.89,SSE,165,1.0,5.0,95,0.00,,---,0.00,VWS V14.01,2015-09-04 11:43:00,
2015-09-04 06:48:00,74.8,73.3,29.89,SSE,165,0.0,2.0,95,0.00,,---,0.00,VWS V14.01,2015-09-04 11:48:00,
2015-09-04 06:53:00,74.7,73.2,29.89,SSE,165,0.0,0.0,95,0.00,,---,0.00,VWS V14.01,2015-09-04 11:53:00,
2015-09-04 06:58:00,74.6,73.1,29.89,SSE,165,0.0,0.0,95,0.00,,---,0.00,VWS V14.01,2015-09-04 11:58:00,
2015-09-04 07:03:00,74.5,73.0,29.89,SSE,165,0.0,0.0,95,0.00,,---,0.00,VWS V14.01,2015-09-04 12:03:00,
2015-09-04 07:13:00,74.5,73.0,29.89,SSE,165,0.0,0.0,95,0.00,,---,0.00,VWS V14.01,2015-09-04 12:13:00,
2015-09-04 07:18:00,74.5,73.0,29.90,SSE,165,0.0,0.0,95,0.00,,---,0.00,VWS V14.01,2015-09-04 12:18:00,
2015-09-04 07:23:00,74.5,73.0,29.89,SSE,165,0.0,0.0,95,0.00,,---,0.00,VWS V14.01,2015-09-04 12:23:00,
2015-09-04 07:28:00,74.5,73.3,29.90,SSE,164,0.0,0.0,96,0.00,,---,0.00,VWS V14.01,2015-09-04 12:28:00,
2015-09-04 07:33:00,74.7,73.5,29.90,SSE,163,0.0,0.0,96,0.00,,---,0.00,VWS V14.01,2015-09-04 12:33:00,
2015-09-04 07:38:00,74.7,73.5,29.90,SSE,162,4.0,4.0,96,0.00,,---,0.00,VWS V14.01,2015-09-04 12:38:00,
2015-09-04 07:48:00,74.9,73.7,29.90,SE,126,0.0,5.0,96,0.00,,---,0.00,VWS V14.01,2015-09-04 12:48:00,
2015-09-04 07:58:00,75.2,74.0,29.90,SE,125,4.0,6.0,96,0.00,,---,0.00,VWS V14.01,2015-09-04 12:58:00,
2015-09-04 08:03:00,75.4,74.2,29.91,SE,125,5.0,6.0,96,0.00,,---,0.00,VWS V14.01,2015-09-04 13:03:00,
2015-09-04 08:08:00,75.7,74.5,29.91,SE,125,4.0,7.0,96,0.00,,---,0.00,VWS V14.01,2015-09-04 13:08:00,
2015-09-04 08:18:00,76.1,74.9,29.91,SE,141,8.0,9.0,96,0.00,,---,0.00,VWS V14.01,2015-09-04 13:18:00,
2015-09-04 08:23:00,76.2,75.0,29.91,SE,134,6.0,8.0,96,0.00,,---,0.00,VWS V14.01,2015-09-04 13:23:00,
2015-09-04 08:33:00,76.6,75.4,29.92,SSE,148,8.0,8.0,96,0.00,,---,0.00,VWS V14.01,2015-09-04 13:33:00,
2015-09-04 08:38:00,76.7,75.2,29.92,SSE,148,6.0,8.0,95,0.00,,---,0.00,VWS V14.01,2015-09-04 13:38:00,
2015-09-04 08:48:00,77.3,75.8,29.92,SSE,162,4.0,7.0,95,0.00,,---,0.00,VWS V14.01,2015-09-04 13:48:00,
2015-09-04 08:53:00,77.7,75.8,29.92,SSE,160,5.0,8.0,94,0.00,,---,0.00,VWS V14.01,2015-09-04 13:53:00,
2015-09-04 09:03:00,78.1,75.6,29.92,SSE,164,0.0,6.0,92,0.00,,---,0.00,VWS V14.01,2015-09-04 14:03:00,
2015-09-04 09:08:00,78.1,75.6,29.92,SSE,164,2.0,6.0,92,0.00,,---,0.00,VWS V14.01,2015-09-04 14:08:00,
2015-09-04 09:13:00,78.3,75.8,29.92,SSE,164,4.0,8.0,92,0.00,,---,0.00,VWS V14.01,2015-09-04 14:13:00,
2015-09-04 09:18:00,78.6,76.1,29.92,SSE,164,0.0,6.0,92,0.00,,---,0.00,VWS V14.01,2015-09-04 14:18:00,
2015-09-04 09:23:00,78.7,75.5,29.92,SSE,164,0.0,7.0,90,0.00,,---,0.00,VWS V14.01,2015-09-04 14:23:00,
2015-09-04 09:33:00,79.6,75.7,29.92,South,181,6.0,11.0,88,0.00,,---,0.00,VWS V14.01,2015-09-04 14:33:00,
2015-09-04 09:38:00,80.2,76.3,29.92,South,169,9.0,9.0,88,0.00,,---,0.00,VWS V14.01,2015-09-04 14:38:00,
2015-09-04 09:43:00,80.7,76.1,29.92,South,189,4.0,9.0,86,0.00,,---,0.00,VWS V14.01,2015-09-04 14:43:00,
2015-09-04 09:48:00,80.9,76.0,29.92,SE,142,6.0,10.0,85,0.00,,---,0.00,VWS V14.01,2015-09-04 14:48:00,
2015-09-04 09:53:00,81.4,76.1,29.92,SSE,165,6.0,10.0,84,0.00,,---,0.00,VWS V14.01,2015-09-04 14:53:00,
2015-09-04 09:58:00,81.7,76.4,29.92,SSE,157,8.0,11.0,84,0.00,,---,0.00,VWS V14.01,2015-09-04 14:58:00,
2015-09-04 10:03:00,82.1,76.4,29.92,South,169,6.0,10.0,83,0.00,,---,0.00,VWS V14.01,2015-09-04 15:03:00,
2015-09-04 10:08:00,82.3,75.9,29.92,SSE,166,9.0,10.0,81,0.00,,---,0.00,VWS V14.01,2015-09-04 15:08:00,
2015-09-04 10:18:00,83.1,75.9,29.92,SSE,164,11.0,15.0,79,0.00,,---,0.00,VWS V14.01,2015-09-04 15:18:00,
2015-09-04 10:23:00,83.2,75.2,29.92,South,169,8.0,12.0,77,0.00,,---,0.00,VWS V14.01,2015-09-04 15:23:00,
2015-09-04 10:28:00,82.9,75.7,29.92,South,187,8.0,11.0,79,0.00,,---,0.00,VWS V14.01,2015-09-04 15:28:00,
2015-09-04 10:33:00,83.6,75.6,29.92,SSW,200,11.0,13.0,77,0.00,,---,0.00,VWS V14.01,2015-09-04 15:33:00,
2015-09-04 10:38:00,84.2,75.8,29.92,SSE,161,7.0,11.0,76,0.00,,---,0.00,VWS V14.01,2015-09-04 15:38:00,
2015-09-04 10:43:00,84.6,75.4,29.92,South,175,9.0,11.0,74,0.00,,---,0.00,VWS V14.01,2015-09-04 15:43:00,
2015-09-04 10:48:00,84.8,75.6,29.92,South,176,6.0,13.0,74,0.00,,---,0.00,VWS V14.01,2015-09-04 15:48:00,
2015-09-04 10:53:00,84.7,74.7,29.92,South,182,8.0,13.0,72,0.00,,---,0.00,VWS V14.01,2015-09-04 15:53:00,
2015-09-04 10:58:00,84.5,75.3,29.92,South,174,9.0,11.0,74,0.00,,---,0.00,VWS V14.01,2015-09-04 15:58:00,
2015-09-04 11:03:00,84.4,74.8,29.92,SSE,153,7.0,12.0,73,0.00,,---,0.00,VWS V14.01,2015-09-04 16:03:00,
2015-09-04 11:08:00,84.0,75.2,29.93,SSE,161,7.0,10.0,75,0.00,,---,0.00,VWS V14.01,2015-09-04 16:08:00,
2015-09-04 11:13:00,83.9,74.7,29.93,South,183,5.0,10.0,74,0.00,,---,0.00,VWS V14.01,2015-09-04 16:13:00,
2015-09-04 11:18:00,83.8,75.0,29.92,SSE,153,5.0,8.0,75,0.00,,---,0.00,VWS V14.01,2015-09-04 16:18:00,
2015-09-04 11:23:00,84.5,75.3,29.93,SSE,153,0.0,7.0,74,0.00,,---,0.00,VWS V14.01,2015-09-04 16:23:00,
2015-09-04 11:28:00,85.2,76.0,29.92,SSE,153,7.0,7.0,74,0.00,,---,0.00,VWS V14.01,2015-09-04 16:28:00,
2015-09-04 11:33:00,85.4,75.3,29.92,SSE,154,5.0,8.0,72,0.00,,---,0.00,VWS V14.01,2015-09-04 16:33:00,
2015-09-04 11:43:00,87.0,73.8,29.92,South,170,8.0,12.0,65,0.00,,---,0.00,VWS V14.01,2015-09-04 16:43:00,
2015-09-04 11:48:00,87.4,74.2,29.92,South,182,5.0,13.0,65,0.00,,---,0.00,VWS V14.01,2015-09-04 16:48:00,
2015-09-04 11:53:00,87.2,74.0,29.92,South,174,5.0,9.0,65,0.00,,---,0.00,VWS V14.01,2015-09-04 16:53:00,
2015-09-04 11:58:00,86.9,74.2,29.92,SSW,196,10.0,11.0,66,0.00,,---,0.00,VWS V14.01,2015-09-04 16:58:00,
2015-09-04 12:03:00,87.0,73.4,29.92,SSW,204,6.0,12.0,64,0.00,,---,0.00,VWS V14.01,2015-09-04 17:03:00,
2015-09-04 12:08:00,87.2,74.5,29.92,SSW,211,7.0,12.0,66,0.00,,---,0.00,VWS V14.01,2015-09-04 17:08:00,
2015-09-04 12:13:00,87.3,75.0,29.92,SSW,198,7.0,11.0,67,0.00,,---,0.00,VWS V14.01,2015-09-04 17:13:00,
2015-09-04 12:18:00,88.1,74.9,29.92,SSW,196,1.0,8.0,65,0.00,,---,0.00,VWS V14.01,2015-09-04 17:18:00,
2015-09-04 12:23:00,88.0,73.8,29.91,SSW,196,7.0,8.0,63,0.00,,---,0.00,VWS V14.01,2015-09-04 17:23:00,
2015-09-04 12:28:00,87.5,73.4,29.91,SSW,201,5.0,9.0,63,0.00,,---,0.00,VWS V14.01,2015-09-04 17:28:00,
2015-09-04 12:33:00,88.2,74.5,29.91,South,171,5.0,9.0,64,0.00,,---,0.00,VWS V14.01,2015-09-04 17:33:00,
2015-09-04 12:38:00,88.4,74.2,29.91,South,173,6.0,9.0,63,0.00,,---,0.00,VWS V14.01,2015-09-04 17:38:00,
2015-09-04 12:43:00,88.1,73.9,29.91,South,187,5.0,10.0,63,0.00,,---,0.00,VWS V14.01,2015-09-04 17:43:00,
2015-09-04 12:48:00,88.1,73.9,29.91,SSW,198,6.0,8.0,63,0.00,,---,0.00,VWS V14.01,2015-09-04 17:48:00,
2015-09-04 12:53:00,88.0,74.3,29.90,SSW,198,6.0,9.0,64,0.00,,---,0.00,VWS V14.01,2015-09-04 17:53:00,
2015-09-04 12:58:00,88.4,73.7,29.90,South,169,8.0,10.0,62,0.00,,---,0.00,VWS V14.01,2015-09-04 17:58:00,
2015-09-04 13:08:00,88.7,74.0,29.90,South,178,4.0,8.0,62,0.00,,---,0.00,VWS V14.01,2015-09-04 18:08:00,
2015-09-04 13:13:00,89.1,73.9,29.90,SW,214,1.0,9.0,61,0.00,,---,0.00,VWS V14.01,2015-09-04 18:13:00,
2015-09-04 13:18:00,89.9,74.7,29.90,SSE,149,6.0,11.0,61,0.00,,---,0.00,VWS V14.01,2015-09-04 18:18:00,
2015-09-04 13:23:00,90.4,74.6,29.90,SSE,166,5.0,6.0,60,0.00,,---,0.00,VWS V14.01,2015-09-04 18:23:00,
2015-09-04 13:28:00,90.6,74.3,29.89,SSE,166,0.0,7.0,59,0.00,,---,0.00,VWS V14.01,2015-09-04 18:28:00,
2015-09-04 13:33:00,90.6,74.3,29.89,SSE,166,0.0,6.0,59,0.00,,---,0.00,VWS V14.01,2015-09-04 18:33:00,
2015-09-04 13:38:00,90.5,74.2,29.89,South,173,6.0,9.0,59,0.00,,---,0.00,VWS V14.01,2015-09-04 18:38:00,
2015-09-04 13:43:00,90.0,73.2,29.89,South,174,5.0,9.0,58,0.00,,---,0.00,VWS V14.01,2015-09-04 18:43:00,
2015-09-04 13:53:00,90.3,73.5,29.89,South,174,4.0,10.0,58,0.00,,---,0.00,VWS V14.01,2015-09-04 18:53:00,
2015-09-04 13:58:00,90.8,73.5,29.89,South,179,5.0,8.0,57,0.00,,---,0.00,VWS V14.01,2015-09-04 18:58:00,
2015-09-04 14:03:00,90.9,74.1,29.88,South,179,6.0,6.0,58,0.00,,---,0.00,VWS V14.01,2015-09-04 19:03:00,
2015-09-04 14:08:00,91.4,74.6,29.88,SE,134,4.0,9.0,58,0.00,,---,0.00,VWS V14.01,2015-09-04 19:08:00,
2015-09-04 14:13:00,91.7,73.8,29.88,ESE,116,5.0,11.0,56,0.00,,---,0.00,VWS V14.01,2015-09-04 19:13:00,
2015-09-04 14:18:00,91.0,72.6,29.88,SE,146,4.0,12.0,55,0.00,,---,0.00,VWS V14.01,2015-09-04 19:18:00,
2015-09-04 14:23:00,91.1,73.8,29.88,SE,146,0.0,5.0,57,0.00,,---,0.00,VWS V14.01,2015-09-04 19:23:00,
2015-09-04 14:28:00,92.5,74.0,29.87,SE,130,11.0,13.0,55,0.00,,---,0.00,VWS V14.01,2015-09-04 19:28:00,
2015-09-04 14:33:00,92.6,73.0,29.87,SSE,159,6.0,11.0,53,0.00,,---,0.00,VWS V14.01,2015-09-04 19:33:00,
2015-09-04 14:38:00,92.1,72.5,29.87,South,173,6.0,10.0,53,0.00,,---,0.00,VWS V14.01,2015-09-04 19:38:00,
2015-09-04 14:43:00,91.9,73.4,29.87,SSE,151,5.0,9.0,55,0.00,,---,0.00,VWS V14.01,2015-09-04 19:43:00,
2015-09-04 14:48:00,92.3,74.3,29.87,ESE,111,2.0,9.0,56,0.00,,---,0.00,VWS V14.01,2015-09-04 19:48:00,
2015-09-04 14:53:00,92.5,74.0,29.87,SE,142,9.0,11.0,55,0.00,,---,0.00,VWS V14.01,2015-09-04 19:53:00,
2015-09-04 14:58:00,92.8,73.7,29.87,ESE,108,5.0,11.0,54,0.00,,---,0.00,VWS V14.01,2015-09-04 19:58:00,
2015-09-04 15:03:00,92.3,73.3,29.86,ESE,103,5.0,9.0,54,0.00,,---,0.00,VWS V14.01,2015-09-04 20:03:00,
2015-09-04 15:08:00,91.8,73.3,29.86,SE,126,6.0,9.0,55,0.00,,---,0.00,VWS V14.01,2015-09-04 20:08:00,
2015-09-04 15:13:00,91.5,73.1,29.86,SSE,168,6.0,8.0,55,0.00,,---,0.00,VWS V14.01,2015-09-04 20:13:00,
2015-09-04 15:18:00,92.2,73.2,29.86,South,171,2.0,9.0,54,0.00,,---,0.00,VWS V14.01,2015-09-04 20:18:00,
2015-09-04 15:23:00,92.7,73.1,29.86,South,171,0.0,2.0,53,0.00,,---,0.00,VWS V14.01,2015-09-04 20:23:00,
2015-09-04 15:28:00,92.9,73.8,29.86,ESE,103,5.0,6.0,54,0.00,,---,0.00,VWS V14.01,2015-09-04 20:28:00,
2015-09-04 15:43:00,93.5,73.2,29.85,ESE,117,2.0,5.0,52,0.00,,---,0.00,VWS V14.01,2015-09-04 20:43:00,
2015-09-04 15:48:00,93.9,73.6,29.85,SE,130,0.0,6.0,52,0.00,,---,0.00,VWS V14.01,2015-09-04 20:48:00,
2015-09-04 15:53:00,93.6,72.8,29.85,ESE,109,1.0,8.0,51,0.00,,---,0.00,VWS V14.01,2015-09-04 20:53:00,
2015-09-04 15:58:00,93.3,73.1,29.84,SSE,156,6.0,11.0,52,0.00,,---,0.00,VWS V14.01,2015-09-04 20:58:00,
2015-09-04 16:03:00,93.7,72.8,29.84,SE,128,6.0,12.0,51,0.00,,---,0.00,VWS V14.01,2015-09-04 21:03:00,
2015-09-04 16:08:00,94.2,73.3,29.84,East,100,7.0,9.0,51,0.00,,---,0.00,VWS V14.01,2015-09-04 21:08:00,
2015-09-04 16:13:00,94.2,72.7,29.84,ESE,123,2.0,12.0,50,0.00,,---,0.00,VWS V14.01,2015-09-04 21:13:00,
2015-09-04 16:18:00,94.2,73.3,29.84,SE,124,9.0,15.0,51,0.00,,---,0.00,VWS V14.01,2015-09-04 21:18:00,
2015-09-04 16:28:00,94.5,73.0,29.83,SE,133,7.0,13.0,50,0.00,,---,0.00,VWS V14.01,2015-09-04 21:28:00,
2015-09-04 16:33:00,94.6,72.5,29.83,ESE,102,7.0,12.0,49,0.00,,---,0.00,VWS V14.01,2015-09-04 21:33:00,
2015-09-04 16:43:00,94.6,71.9,29.84,SSE,167,6.0,12.0,48,0.00,,---,0.00,VWS V14.01,2015-09-04 21:43:00,
2015-09-04 16:48:00,94.6,71.9,29.84,SE,140,10.0,13.0,48,0.00,,---,0.00,VWS V14.01,2015-09-04 21:48:00,
2015-09-04 16:53:00,94.4,72.9,29.84,SE,141,5.0,10.0,50,0.00,,---,0.00,VWS V14.01,2015-09-04 21:53:00,
2015-09-04 16:58:00,94.7,72.6,29.83,East,80,2.0,9.0,49,0.00,,---,0.00,VWS V14.01,2015-09-04 21:58:00,
2015-09-04 17:03:00,94.7,71.3,29.83,SE,127,11.0,13.0,47,0.00,,---,0.00,VWS V14.01,2015-09-04 22:03:00,
2015-09-04 17:08:00,95.0,71.0,29.83,SSE,151,8.0,13.0,46,0.00,,---,0.00,VWS V14.01,2015-09-04 22:08:00,
2015-09-04 17:18:00,95.3,71.3,29.83,SE,140,12.0,13.0,46,0.00,,---,0.00,VWS V14.01,2015-09-04 22:18:00,
2015-09-04 17:28:00,91.6,75.2,29.84,SE,131,15.0,24.0,59,0.00,,---,0.00,VWS V14.01,2015-09-04 22:28:00,
2015-09-04 17:33:00,90.6,74.8,29.84,ESE,119,16.0,21.0,60,0.00,,---,0.00,VWS V14.01,2015-09-04 22:33:00,
2015-09-04 17:38:00,90.1,74.8,29.84,ESE,116,19.0,21.0,61,0.00,,---,0.00,VWS V14.01,2015-09-04 22:38:00,
2015-09-04 17:48:00,89.4,74.7,29.84,ESE,117,13.0,18.0,62,0.00,,---,0.00,VWS V14.01,2015-09-04 22:48:00,
2015-09-04 17:53:00,89.6,74.9,29.84,SE,140,12.0,18.0,62,0.00,,---,0.00,VWS V14.01,2015-09-04 22:53:00,
2015-09-04 17:58:00,90.2,75.4,29.84,SE,131,13.0,17.0,62,0.00,,---,0.00,VWS V14.01,2015-09-04 22:58:00,
2015-09-04 18:08:00,90.7,74.9,29.84,SSE,155,9.0,20.0,60,0.00,,---,0.00,VWS V14.01,2015-09-04 23:08:00,
2015-09-04 18:13:00,90.2,74.9,29.84,ESE,112,11.0,19.0,61,0.00,,---,0.00,VWS V14.01,2015-09-04 23:13:00,
2015-09-04 18:18:00,89.7,75.0,29.84,ESE,123,8.0,18.0,62,0.00,,---,0.00,VWS V14.01,2015-09-04 23:18:00,
2015-09-04 18:23:00,89.1,74.9,29.85,SE,138,12.0,15.0,63,0.00,,---,0.00,VWS V14.01,2015-09-04 23:23:00,
2015-09-04 18:28:00,88.6,75.3,29.85,SE,131,12.0,13.0,65,0.00,,---,0.00,VWS V14.01,2015-09-04 23:28:00,
2015-09-04 18:38:00,87.9,74.2,29.85,SE,130,12.0,18.0,64,0.00,,---,0.00,VWS V14.01,2015-09-04 23:38:00,
2015-09-04 18:43:00,87.8,74.1,29.85,SE,133,8.0,16.0,64,0.00,,---,0.00,VWS V14.01,2015-09-04 23:43:00,
2015-09-04 18:48:00,87.7,74.0,29.85,ESE,115,8.0,16.0,64,0.00,,---,0.00,VWS V14.01,2015-09-04 23:48:00,
2015-09-04 18:53:00,87.6,74.4,29.85,ESE,113,9.0,14.0,65,0.00,,---,0.00,VWS V14.01,2015-09-04 23:53:00,
2015-09-04 18:58:00,87.7,74.5,29.85,SE,127,6.0,13.0,65,0.00,,---,0.00,VWS V14.01,2015-09-04 23:58:00,
2015-09-04 19:03:00,87.7,74.5,29.86,SE,124,7.0,12.0,65,0.00,,---,0.00,VWS V14.01,2015-09-05 00:03:00,
2015-09-04 19:08:00,87.6,74.4,29.86,ESE,121,8.0,15.0,65,0.00,,---,0.00,VWS V14.01,2015-09-05 00:08:00,
2015-09-04 19:13:00,87.5,74.3,29.86,ESE,121,12.0,13.0,65,0.00,,---,0.00,VWS V14.01,2015-09-05 00:13:00,
2015-09-04 19:18:00,87.3,74.1,29.86,SE,128,11.0,13.0,65,0.00,,---,0.00,VWS V14.01,2015-09-05 00:18:00,
2015-09-04 19:28:00,87.1,74.4,29.86,SE,132,7.0,11.0,66,0.00,,---,0.00,VWS V14.01,2015-09-05 00:28:00,